Time;durP1;ratioP1;P1;durP2;ratioP2;P2;SDS_P1;SDS_P2;PMS_P1;PMS_P2;Temp;Humidity;BMP_temperature;BMP_pressure;BME280_temperature;BME280_humidity;BME280_pressure;Samples;Min_cycle;Max_cycle;Signal;HPM_P1;HPM_P2
2022/04/10 00:01:41;;;;;;;14.18;5.40;;;;;;;6.61;98.02;98346.31;4990578;28;20080;-63
2022/04/10 00:04:06;;;;;;;11.57;5.15;;;;;;;6.71;98.67;98367.72;4991002;28;20069;-63
2022/04/10 00:06:32;;;;;;;11.75;5.32;;;;;;;6.65;99.16;98347.69;4990777;28;20086;-63
2022/04/10 00:08:58;;;;;;;10.35;5.43;;;;;;;6.69;99.79;98357.13;4991987;28;20482;-64
2022/04/10 00:11:24;;;;;;;10.82;5.07;;;;;;;6.65;99.23;98357.59;4992319;28;20483;-64
2022/04/10 00:13:50;;;;;;;10.00;4.93;;;;;;;6.63;99.29;98359.59;4992304;28;20058;-63
2022/04/10 00:16:16;;;;;;;10.55;4.85;;;;;;;6.67;99.28;98355.59;4990784;28;20050;-63
2022/04/10 00:18:42;;;;;;;12.77;4.95;;;;;;;6.62;99.06;98341.78;4991784;28;20535;-63
2022/04/10 00:21:08;;;;;;;10.05;4.50;;;;;;;6.67;99.45;98340.34;4991596;28;20038;-63
2022/04/10 00:23:33;;;;;;;12.95;4.53;;;;;;;6.66;99.02;98327.06;4970334;28;20082;-64
2022/04/10 00:26:00;;;;;;;12.02;4.38;;;;;;;6.56;99.99;98316.44;4972528;28;20054;-63
2022/04/10 00:28:26;;;;;;;11.77;4.50;;;;;;;6.72;97.69;98327.25;4972499;28;20058;-62
2022/04/10 00:30:52;;;;;;;11.15;4.35;;;;;;;6.73;98.32;98328.13;4971156;28;20054;-63
2022/04/10 00:33:17;;;;;;;12.30;5.00;;;;;;;6.77;97.68;98324.13;4986920;28;20047;-64
2022/04/10 00:35:43;;;;;;;12.32;4.70;;;;;;;6.74;98.79;98319.06;4986832;28;20039;-65
2022/04/10 00:38:09;;;;;;;9.20;4.40;;;;;;;6.74;98.78;98319.06;4970752;28;20051;-63
2022/04/10 00:40:35;;;;;;;11.65;4.30;;;;;;;6.78;99.77;98336.53;4971962;28;20393;-64
2022/04/10 00:43:01;;;;;;;12.27;5.10;;;;;;;6.79;99.87;98330.16;4971006;28;20073;-62
2022/04/10 00:45:27;;;;;;;11.93;5.15;;;;;;;6.74;100.00;98322.59;4970011;28;20043;-62
2022/04/10 00:47:54;;;;;;;14.27;5.68;;;;;;;6.74;100.00;98316.38;4971566;28;20047;-63
2022/04/10 00:50:20;;;;;;;13.70;5.63;;;;;;;6.71;100.00;98314.00;4970710;28;20056;-62
2022/04/10 00:52:48;;;;;;;14.85;6.00;;;;;;;6.71;100.00;98311.31;4972151;28;20043;-62
2022/04/10 00:55:15;;;;;;;14.98;5.88;;;;;;;6.73;100.00;98314.69;4970745;28;20455;-63
2022/04/10 00:57:43;;;;;;;12.02;6.45;;;;;;;6.68;100.00;98314.31;4970564;28;20055;-62
2022/04/10 01:00:11;;;;;;;16.08;6.75;;;;;;;6.67;100.00;98305.41;4971853;28;20046;-63
2022/04/10 01:02:38;;;;;;;12.20;6.07;;;;;;;6.63;100.00;98305.91;4970441;28;20068;-63
2022/04/10 01:05:04;;;;;;;13.32;5.97;;;;;;;6.63;100.00;98312.13;4971125;28;20126;-61
2022/04/10 01:07:30;;;;;;;14.65;6.70;;;;;;;6.56;100.00;98299.50;4970995;28;20137;-69
2022/04/10 01:09:57;;;;;;;12.18;5.45;;;;;;;6.53;100.00;98306.84;4973034;28;20443;-62
2022/04/10 01:12:23;;;;;;;13.25;5.45;;;;;;;6.51;100.00;98306.19;4941271;28;20543;-63
2022/04/10 01:14:51;;;;;;;12.38;6.43;;;;;;;6.49;100.00;98300.13;4958117;28;20081;-62
2022/04/10 01:17:22;;;;;;;14.85;5.97;;;;;;;6.44;100.00;98306.97;4973406;28;20137;-62
2022/04/10 01:19:52;;;;;;;13.98;5.95;;;;;;;6.47;100.00;98320.06;4971903;28;20051;-64
2022/04/10 01:22:27;;;;;;;11.80;5.32;;;;;;;6.46;100.00;98321.91;4987600;28;20050;-65
2022/04/10 01:24:54;;;;;;;15.35;6.07;;;;;;;6.39;100.00;98310.09;4955283;28;20076;-63
2022/04/10 01:27:20;;;;;;;13.32;6.45;;;;;;;6.38;100.00;98324.53;4955733;28;20195;-62
2022/04/10 01:29:47;;;;;;;15.23;6.32;;;;;;;6.41;100.00;98323.38;4955363;28;20047;-63
2022/04/10 01:32:13;;;;;;;14.32;6.90;;;;;;;6.35;100.00;98314.09;4970980;28;20047;-63
2022/04/10 01:34:40;;;;;;;12.55;6.00;;;;;;;6.32;100.00;98314.41;4971253;28;20383;-62
2022/04/10 01:37:08;;;;;;;15.13;6.93;;;;;;;6.31;100.00;98307.38;4939493;28;20510;-62
2022/04/10 01:39:34;;;;;;;14.48;6.38;;;;;;;6.32;100.00;98314.41;4955005;28;20050;-63
2022/04/10 01:42:00;;;;;;;14.00;6.07;;;;;;;6.35;100.00;98314.09;4972451;28;20062;-63
2022/04/10 01:44:27;;;;;;;12.15;6.45;;;;;;;6.31;100.00;98310.06;4986648;28;20463;-63
2022/04/10 01:46:52;;;;;;;16.30;6.93;;;;;;;6.33;100.00;98307.25;4970076;28;20490;-63
2022/04/10 01:49:18;;;;;;;13.25;6.85;;;;;;;6.31;100.00;98296.63;4985931;28;20121;-64
2022/04/10 01:51:44;;;;;;;16.17;7.78;;;;;;;6.32;100.00;98295.63;4971333;28;20447;-62
2022/04/10 01:54:10;;;;;;;15.55;8.57;;;;;;;6.30;100.00;98291.44;4985964;28;20577;-64
2022/04/10 01:56:36;;;;;;;14.98;8.43;;;;;;;6.31;100.00;98291.28;4969535;28;20100;-61
2022/04/10 01:59:04;;;;;;;17.55;8.13;;;;;;;6.33;100.00;98293.81;4985980;28;20047;-63
2022/04/10 02:01:30;;;;;;;15.00;8.20;;;;;;;6.31;100.00;98285.06;4970125;28;20101;-63
2022/04/10 02:03:55;;;;;;;15.57;7.72;;;;;;;6.35;100.00;98279.22;4970472;28;20042;-63
2022/04/10 02:06:21;;;;;;;17.65;8.82;;;;;;;6.35;100.00;98271.16;4986364;28;20065;-63
2022/04/10 02:08:52;;;;;;;19.40;8.60;;;;;;;6.37;100.00;98274.56;4972611;28;20466;-62
2022/04/10 02:11:20;;;;;;;17.58;8.48;;;;;;;6.26;100.00;98256.88;4970895;28;20133;-63
2022/04/10 02:13:48;;;;;;;19.67;9.13;;;;;;;6.32;100.00;98271.47;4986296;28;20043;-63
2022/04/10 02:16:16;;;;;;;16.20;9.10;;;;;;;6.37;100.00;98271.88;4954505;28;20050;-61
2022/04/10 02:18:43;;;;;;;20.08;8.88;;;;;;;6.41;100.00;98280.44;4986144;28;20479;-62
2022/04/10 02:21:09;;;;;;;16.55;9.05;;;;;;;6.35;100.00;98271.16;4985619;28;20509;-63
2022/04/10 02:23:36;;;;;;;20.55;8.95;;;;;;;6.42;100.00;98277.59;4937561;28;20122;-64
2022/04/10 02:26:03;;;;;;;19.42;9.00;;;;;;;6.44;100.00;98272.91;4985597;28;20089;-63
2022/04/10 02:28:29;;;;;;;18.75;9.48;;;;;;;6.42;100.00;98272.22;4969622;28;20050;-63
2022/04/10 02:30:55;;;;;;;17.88;9.07;;;;;;;6.43;100.00;98267.69;4969504;28;20046;-62
2022/04/10 02:33:21;;;;;;;18.83;9.60;;;;;;;6.42;100.00;98279.44;4969178;28;20525;-62
2022/04/10 02:35:48;;;;;;;19.75;9.35;;;;;;;6.34;100.00;98256.06;4985448;28;20054;-63
2022/04/10 02:38:16;;;;;;;19.17;9.43;;;;;;;6.43;100.00;98259.63;4953670;28;20097;-64
2022/04/10 02:40:44;;;;;;;21.10;8.73;;;;;;;6.46;100.00;98273.56;4937640;28;20489;-62
2022/04/10 02:43:13;;;;;;;20.17;10.05;;;;;;;6.46;100.00;98270.91;4968783;28;20059;-63
2022/04/10 02:45:42;;;;;;;18.10;8.27;;;;;;;6.47;100.00;98264.56;4969083;28;20527;-62
2022/04/10 02:48:08;;;;;;;19.85;10.55;;;;;;;6.44;100.00;98280.13;4969397;28;20055;-64
2022/04/10 02:50:39;;;;;;;19.92;9.95;;;;;;;6.48;100.00;98271.59;4969216;28;20058;-62
2022/04/10 02:53:06;;;;;;;17.83;8.57;;;;;;;6.48;100.00;98276.13;4953067;28;20371;-62
2022/04/10 02:55:34;;;;;;;18.95;10.35;;;;;;;6.51;100.00;98271.28;4969290;28;20065;-63
2022/04/10 02:58:18;;;;;;;19.25;10.38;;;;;;;6.53;100.00;98277.31;4983270;28;20095;-63
2022/04/10 03:01:03;;;;;;;22.67;12.25;;;;;;;6.47;100.00;98269.91;4969418;28;20062;-64
2022/04/10 03:03:51;;;;;;;19.40;9.88;;;;;;;6.36;100.00;98245.16;4956705;28;20427;-62
2022/04/10 03:06:36;;;;;;;19.63;10.27;;;;;;;6.55;100.00;98273.66;4969398;28;20581;-64
2022/04/10 03:09:21;;;;;;;23.30;12.95;;;;;;;6.55;100.00;98277.16;4957019;28;20069;-63
2022/04/10 03:12:06;;;;;;;19.70;10.73;;;;;;;6.55;100.00;98265.59;4973110;28;20147;-63
2022/04/10 03:14:52;;;;;;;18.65;10.77;;;;;;;6.53;100.00;98285.38;4986554;28;20517;-62
2022/04/10 03:17:37;;;;;;;17.95;9.18;;;;;;;6.58;100.00;98284.03;4986584;28;20498;-63
2022/04/10 03:20:23;;;;;;;19.70;10.40;;;;;;;6.53;100.00;98280.00;4986315;28;20057;-63
2022/04/10 03:23:10;;;;;;;19.90;11.25;;;;;;;6.59;100.00;98275.00;4972674;28;20481;-62
2022/04/10 03:25:55;;;;;;;21.15;11.77;;;;;;;6.46;100.00;98267.38;4973062;28;20570;-64
2022/04/10 03:28:40;;;;;;;18.90;10.48;;;;;;;6.59;100.00;98277.69;4972360;28;20129;-63
2022/04/10 03:31:24;;;;;;;20.17;11.57;;;;;;;6.44;100.00;98259.50;4985897;28;20090;-63
2022/04/10 03:34:11;;;;;;;19.17;9.70;;;;;;;6.45;100.00;98261.16;4986193;28;20058;-62
2022/04/10 03:36:55;;;;;;;20.90;10.70;;;;;;;6.56;100.00;98283.38;4972266;28;20101;-63
2022/04/10 03:39:40;;;;;;;19.85;10.60;;;;;;;6.61;100.00;98276.50;4972075;28;20524;-63
2022/04/10 03:42:26;;;;;;;23.35;10.82;;;;;;;6.65;100.00;98282.41;4985769;28;20053;-63
2022/04/10 03:45:11;;;;;;;22.10;11.38;;;;;;;6.50;100.00;98258.84;4958543;28;20085;-63
2022/04/10 03:47:56;;;;;;;23.73;11.63;;;;;;;6.49;100.00;98254.47;4989065;28;20069;-63
2022/04/10 03:50:43;;;;;;;22.55;12.05;;;;;;;6.61;100.00;98271.13;4991555;28;20050;-63
2022/04/10 03:53:30;;;;;;;20.80;11.10;;;;;;;6.67;100.00;98283.09;4964585;28;20501;-61
2022/04/10 03:56:14;;;;;;;20.77;11.00;;;;;;;6.62;100.00;98280.03;4977342;28;20137;-62
2022/04/10 03:58:59;;;;;;;22.38;13.82;;;;;;;6.58;100.00;98281.34;4977570;28;20053;-64
2022/04/10 04:01:45;;;;;;;23.13;11.82;;;;;;;6.56;100.00;98283.38;4990855;28;20049;-63
2022/04/10 04:04:30;;;;;;;24.15;12.77;;;;;;;6.64;100.00;98296.84;4991578;28;20056;-64
2022/04/10 04:07:15;;;;;;;19.85;12.55;;;;;;;6.62;100.00;98298.81;4991173;28;20600;-62
2022/04/10 04:09:59;;;;;;;22.38;10.70;;;;;;;6.58;100.00;98297.47;4991405;28;20052;-62
2022/04/10 04:12:44;;;;;;;24.67;11.80;;;;;;;6.68;100.00;98299.03;4991060;28;20061;-62
2022/04/10 04:15:29;;;;;;;22.45;13.60;;;;;;;6.65;100.00;98309.25;4990695;28;20060;-62
2022/04/10 04:18:16;;;;;;;21.63;12.98;;;;;;;6.65;100.00;98304.72;4990992;28;20132;-63
2022/04/10 04:21:02;;;;;;;18.33;12.07;;;;;;;6.62;100.00;98305.06;4991418;28;20045;-63
2022/04/10 04:23:48;;;;;;;22.73;12.13;;;;;;;6.46;100.00;98295.06;4977265;28;20053;-64
2022/04/10 04:26:33;;;;;;;24.25;13.85;;;;;;;6.39;100.00;98293.16;4990890;28;20109;-63
2022/04/10 04:29:17;;;;;;;25.00;15.18;;;;;;;6.55;100.00;98324.66;4990815;28;20077;-63
2022/04/10 04:32:03;;;;;;;25.48;13.05;;;;;;;6.53;100.00;98316.75;4990840;28;20050;-63
2022/04/10 04:34:47;;;;;;;24.83;15.48;;;;;;;6.48;100.00;98319.91;4991589;28;20068;-63
2022/04/10 04:37:32;;;;;;;26.55;14.48;;;;;;;6.48;100.00;98325.28;4990615;28;20520;-64
2022/04/10 04:40:16;;;;;;;22.65;13.70;;;;;;;6.48;100.00;98336.03;4990578;28;20049;-62
2022/04/10 04:43:02;;;;;;;26.27;14.00;;;;;;;6.48;100.00;98327.97;4977410;28;20074;-63
2022/04/10 04:45:50;;;;;;;27.35;15.23;;;;;;;6.45;100.00;98336.34;4990331;28;20486;-62
2022/04/10 04:48:36;;;;;;;27.67;14.95;;;;;;;6.49;100.00;98342.22;4990224;28;20117;-64
2022/04/10 04:51:21;;;;;;;24.85;14.98;;;;;;;6.47;100.00;98339.72;4990266;28;20100;-63
2022/04/10 04:54:09;;;;;;;26.80;15.93;;;;;;;6.46;100.00;98346.06;4949692;28;20057;-64
2022/04/10 04:56:54;;;;;;;26.27;13.88;;;;;;;6.49;100.00;98351.13;4990331;28;20141;-63
2022/04/10 04:59:41;;;;;;;23.73;13.18;;;;;;;6.52;100.00;98340.06;4970878;28;20102;-62
2022/04/10 05:02:26;;;;;;;24.02;14.13;;;;;;;6.55;100.00;98356.88;4957327;28;20058;-63
2022/04/10 05:05:12;;;;;;;21.88;12.18;;;;;;;6.53;100.00;98341.75;4957218;28;20431;-63
2022/04/10 05:07:57;;;;;;;27.00;14.30;;;;;;;6.35;100.00;98330.22;4944126;28;20541;-63
2022/04/10 05:10:42;;;;;;;22.42;13.45;;;;;;;6.57;100.00;98357.53;4957166;28;20101;-64
2022/04/10 05:13:27;;;;;;;25.80;13.93;;;;;;;6.57;100.00;98365.59;4970520;28;20502;-62
2022/04/10 05:16:13;;;;;;;25.73;14.43;;;;;;;6.61;100.00;98372.34;4970732;28;20098;-64
2022/04/10 05:19:01;;;;;;;25.42;14.80;;;;;;;6.48;100.00;98357.50;4970378;28;20138;-63
2022/04/10 05:21:47;;;;;;;29.25;12.68;;;;;;;6.40;100.00;98333.28;4969948;28;20530;-64
2022/04/10 05:24:31;;;;;;;23.00;13.35;;;;;;;6.60;100.00;98367.97;4970501;28;20050;-63
2022/04/10 05:27:17;;;;;;;22.67;12.80;;;;;;;6.58;100.00;98378.00;4970643;28;20089;-64
2022/04/10 05:30:02;;;;;;;23.45;12.93;;;;;;;6.61;100.00;98377.72;4969795;28;20061;-63
2022/04/10 05:32:47;;;;;;;25.02;11.95;;;;;;;6.65;100.00;98379.06;4983497;28;20426;-64
2022/04/10 05:35:33;;;;;;;24.75;13.27;;;;;;;6.72;100.00;98374.75;4970211;28;20049;-64
2022/04/10 05:38:17;;;;;;;25.55;13.90;;;;;;;6.71;100.00;98386.50;4956355;28;20133;-64
2022/04/10 05:41:03;;;;;;;26.15;13.40;;;;;;;6.66;100.00;98376.25;4969825;28;20518;-64
2022/04/10 05:43:51;;;;;;;23.52;13.18;;;;;;;6.75;100.00;98386.03;4970454;28;20120;-64
2022/04/10 05:46:39;;;;;;;22.58;12.05;;;;;;;6.83;100.00;98382.53;4983721;28;20447;-63
2022/04/10 05:49:26;;;;;;;30.88;13.98;;;;;;;6.83;100.00;98387.91;4970329;28;20474;-64
2022/04/10 05:52:10;;;;;;;22.42;13.00;;;;;;;6.84;100.00;98392.31;4973041;28;20150;-64
2022/04/10 05:55:00;;;;;;;22.65;12.77;;;;;;;6.83;100.00;98398.66;4970530;28;20501;-63
2022/04/10 05:57:47;;;;;;;25.00;13.68;;;;;;;6.75;100.00;98383.34;4970308;28;20057;-65
2022/04/10 06:00:33;;;;;;;29.20;15.80;;;;;;;6.93;100.00;98399.41;4969387;28;20126;-64
2022/04/10 06:03:33;;;;;;;26.48;14.23;;;;;;;6.94;100.00;98406.44;4947018;28;20085;-64
2022/04/10 06:06:21;;;;;;;24.10;14.38;;;;;;;6.99;100.00;98420.28;4983317;28;20093;-64
2022/04/10 06:09:12;;;;;;;31.13;15.38;;;;;;;6.79;100.00;98408.03;4969765;28;20093;-64
2022/04/10 06:11:57;;;;;;;30.15;16.73;;;;;;;6.91;100.00;98436.34;4983351;28;20069;-66
2022/04/10 06:14:44;;;;;;;34.67;17.20;;;;;;;6.91;100.00;98430.09;4956604;28;20101;-64
2022/04/10 06:17:12;;;;;;;34.20;16.60;;;;;;;6.95;100.00;98440.41;4985421;28;20054;-69
2022/04/10 06:19:37;;;;;;;34.63;17.70;;;;;;;7.03;100.00;98449.50;4955282;28;20049;-64
2022/04/10 06:22:08;;;;;;;30.35;15.90;;;;;;;6.99;100.00;98447.13;4973977;28;20057;-65
2022/04/10 06:24:35;;;;;;;32.38;17.85;;;;;;;7.01;100.00;98455.88;4972046;28;20060;-64
2022/04/10 06:27:02;;;;;;;32.78;17.90;;;;;;;7.04;100.00;98459.25;4974504;28;20062;-64
2022/04/10 06:29:29;;;;;;;32.00;17.45;;;;;;;7.07;100.00;98464.31;4947155;28;20034;-66
2022/04/10 06:31:59;;;;;;;36.28;17.45;;;;;;;7.18;100.00;98477.50;4943232;28;20065;-65
2022/04/10 06:34:29;;;;;;;34.05;17.63;;;;;;;7.20;100.00;98480.84;4972433;28;20050;-65
2022/04/10 06:36:56;;;;;;;31.75;15.48;;;;;;;7.26;100.00;98474.84;4971214;28;20046;-65
2022/04/10 06:39:22;;;;;;;29.20;16.73;;;;;;;7.27;100.00;98475.69;4966555;28;20037;-64
2022/04/10 06:41:52;;;;;;;32.78;15.65;;;;;;;7.31;100.00;98482.41;4947284;28;20050;-64
2022/04/10 06:44:37;;;;;;;29.77;15.52;;;;;;;7.25;100.00;98478.53;4968694;28;20498;-65
2022/04/10 06:47:11;;;;;;;28.90;15.50;;;;;;;7.30;100.00;98476.19;4989971;28;20103;-65
2022/04/10 06:49:39;;;;;;;27.48;14.73;;;;;;;7.35;100.00;98473.91;4990967;28;20148;-66
2022/04/10 06:52:05;;;;;;;26.80;13.35;;;;;;;7.43;100.00;98475.78;4989030;28;20133;-67
2022/04/10 06:54:38;;;;;;;26.90;12.15;;;;;;;7.64;100.00;98467.28;4980642;28;20129;-71
2022/04/10 06:57:05;;;;;;;24.80;12.50;;;;;;;7.83;100.00;98475.13;4930302;28;20042;-65
2022/04/10 06:59:31;;;;;;;21.98;11.48;;;;;;;7.64;100.00;98488.81;4973160;28;20188;-67
2022/04/10 07:02:00;;;;;;;23.17;11.68;;;;;;;7.66;100.00;98492.19;4970710;28;20138;-63
2022/04/10 07:04:26;;;;;;;23.30;10.98;;;;;;;7.59;100.00;98507.28;4976430;28;20118;-69
2022/04/10 07:06:53;;;;;;;24.35;12.18;;;;;;;7.57;100.00;98501.22;4944660;28;20047;-65
2022/04/10 07:09:19;;;;;;;23.13;11.80;;;;;;;7.58;100.00;98521.75;4944137;28;20125;-65
2022/04/10 07:11:45;;;;;;;22.27;11.60;;;;;;;7.57;100.00;98520.03;4973954;28;20086;-70
2022/04/10 07:14:31;;;;;;;18.65;9.27;;;;;;;7.57;100.00;98531.66;4976305;28;20519;-65
2022/04/10 07:16:57;;;;;;;18.17;10.02;;;;;;;7.63;100.00;98524.78;4959958;28;20105;-64
2022/04/10 07:19:23;;;;;;;21.65;9.77;;;;;;;7.67;100.00;98520.75;4954873;28;20043;-65
2022/04/10 07:24:34;;;;;;;17.65;8.18;;;;;;;7.55;100.00;98532.81;4959978;28;20101;-64
2022/04/10 07:27:00;;;;;;;15.52;7.25;;;;;;;7.58;100.00;98564.78;4958952;28;20050;-65
2022/04/10 07:29:35;;;;;;;11.10;5.57;;;;;;;7.43;100.00;98568.03;4976396;28;20048;-63
2022/04/10 07:32:03;;;;;;;8.20;2.95;;;;;;;7.08;100.00;98585.06;4969664;28;20042;-65
2022/04/10 07:34:34;;;;;;;7.53;2.63;;;;;;;6.97;100.00;98575.41;4959305;28;20144;-65
2022/04/10 07:37:09;;;;;;;6.00;2.08;;;;;;;6.86;100.00;98597.13;4943078;28;20040;-66
2022/04/10 07:39:44;;;;;;;5.88;2.00;;;;;;;6.80;100.00;98589.72;4959105;28;20122;-65
2022/04/10 07:42:23;;;;;;;6.93;2.10;;;;;;;6.78;100.00;98589.00;4960204;28;20470;-64
2022/04/10 07:44:49;;;;;;;6.65;2.20;;;;;;;6.90;100.00;98609.25;4973314;28;20034;-65
2022/04/10 07:47:26;;;;;;;9.77;2.13;;;;;;;6.77;100.00;98624.94;4959361;28;20050;-66
2022/04/10 07:49:53;;;;;;;6.05;1.80;;;;;;;6.78;99.34;98631.16;4991388;28;20053;-65
2022/04/10 07:52:23;;;;;;;5.93;1.50;;;;;;;6.88;98.68;98622.03;4957821;28;20065;-66
2022/04/10 07:55:05;;;;;;;5.20;1.50;;;;;;;7.02;98.03;98644.81;4977898;28;20156;-66
2022/04/10 07:57:36;;;;;;;6.57;1.80;;;;;;;7.14;97.19;98642.75;4971566;28;20361;-65
2022/04/10 08:00:03;;;;;;;6.35;1.50;;;;;;;7.04;97.13;98647.34;4987291;28;20104;-66
2022/04/10 08:02:52;;;;;;;6.00;1.55;;;;;;;7.12;94.69;98656.31;4977189;28;20046;-65
2022/04/10 08:05:37;;;;;;;5.10;1.52;;;;;;;7.27;94.49;98659.31;4984536;28;20462;-65
2022/04/10 08:08:29;;;;;;;6.88;1.50;;;;;;;7.08;93.40;98643.34;4994701;28;20129;-66
2022/04/10 08:10:54;;;;;;;5.65;1.48;;;;;;;7.29;92.47;98670.75;4982427;28;20065;-64
2022/04/10 08:13:20;;;;;;;8.95;1.50;;;;;;;7.05;92.56;98654.41;4992231;28;20520;-66
2022/04/10 08:15:47;;;;;;;6.78;1.50;;;;;;;7.23;94.01;98666.00;4991482;28;20065;-65
2022/04/10 08:18:13;;;;;;;6.55;1.58;;;;;;;7.43;94.05;98669.38;4990682;28;20050;-65
2022/04/10 08:20:39;;;;;;;6.15;1.58;;;;;;;7.52;91.33;98672.97;4957817;28;20052;-65
2022/04/10 08:23:05;;;;;;;6.80;1.77;;;;;;;7.41;92.79;98672.19;4973677;28;20041;-65
2022/04/10 08:25:31;;;;;;;9.07;1.92;;;;;;;7.57;92.76;98681.41;4996123;28;20048;-66
2022/04/10 08:27:57;;;;;;;5.85;1.70;;;;;;;7.59;91.03;98691.00;4959466;28;20045;-66
2022/04/10 08:30:22;;;;;;;6.10;2.00;;;;;;;7.71;90.87;98696.97;4986289;28;20042;-66
2022/04/10 08:32:48;;;;;;;5.07;1.33;;;;;;;7.56;89.25;98701.22;4973701;28;20096;-65
2022/04/10 08:35:15;;;;;;;6.72;1.50;;;;;;;7.70;89.96;98698.81;5006075;28;20156;-65
2022/04/10 08:37:40;;;;;;;5.95;1.50;;;;;;;7.80;87.83;98730.19;5006271;28;20046;-66
2022/04/10 08:40:07;;;;;;;7.57;2.05;;;;;;;7.74;88.84;98734.34;4991426;28;20038;-64
2022/04/10 08:42:33;;;;;;;6.00;1.70;;;;;;;7.79;89.08;98740.13;4995579;28;20042;-65
2022/04/10 08:44:59;;;;;;;4.72;1.45;;;;;;;7.48;88.88;98724.38;4972712;28;20490;-65
2022/04/10 08:47:25;;;;;;;11.43;2.28;;;;;;;7.24;88.66;98725.00;4991446;28;20045;-65
2022/04/10 08:49:52;;;;;;;8.18;1.92;;;;;;;7.52;89.12;98767.09;4973859;28;20046;-65
2022/04/10 08:52:19;;;;;;;7.45;1.77;;;;;;;7.49;88.16;98766.41;5032758;28;20128;-66
2022/04/10 08:54:46;;;;;;;7.60;2.05;;;;;;;7.30;87.63;98769.22;4980525;28;20049;-65
2022/04/10 08:57:12;;;;;;;7.15;1.85;;;;;;;7.35;87.57;98758.88;5005848;28;20078;-65
2022/04/10 08:59:38;;;;;;;6.13;1.95;;;;;;;7.34;87.89;98767.91;4973106;28;20451;-66
2022/04/10 09:02:06;;;;;;;8.32;2.22;;;;;;;7.35;89.00;98764.25;4989201;28;20062;-65
2022/04/10 09:04:32;;;;;;;7.95;2.17;;;;;;;7.41;88.14;98768.16;4973320;28;20191;-65
2022/04/10 09:07:02;;;;;;;7.05;2.40;;;;;;;7.52;87.87;98776.00;4956106;28;20478;-65
2022/04/10 09:09:29;;;;;;;11.52;3.75;;;;;;;7.77;87.47;98785.16;4989840;28;20530;-67
2022/04/10 09:11:55;;;;;;;9.00;2.50;;;;;;;7.79;86.21;98777.78;4989093;28;20050;-66
2022/04/10 09:14:27;;;;;;;6.20;2.45;;;;;;;7.55;86.55;98791.00;4989635;28;20053;-65
2022/04/10 09:17:15;;;;;;;8.77;1.95;;;;;;;7.69;86.40;98794.00;5002638;28;20421;-65
2022/04/10 09:19:52;;;;;;;6.70;2.17;;;;;;;7.76;86.92;98788.84;4973066;28;20144;-66
2022/04/10 09:22:35;;;;;;;7.07;2.05;;;;;;;7.59;85.16;98787.00;4973853;28;20084;-66
2022/04/10 09:25:03;;;;;;;;;;;;;;;7.82;84.48;98785.50;4973877;28;20100;-65
2022/04/10 09:27:33;;;;;;;7.15;2.38;;;;;;;7.82;84.42;98798.97;5006872;28;19975;-65
2022/04/10 09:29:59;;;;;;;7.43;2.15;;;;;;;7.88;84.08;98792.97;5004164;28;20076;-65
2022/04/10 09:32:51;;;;;;;7.63;2.47;;;;;;;8.09;82.35;98799.88;4989166;28;20209;-65
2022/04/10 09:35:19;;;;;;;7.93;2.45;;;;;;;8.43;80.76;98808.06;4957205;28;20049;-66
2022/04/10 09:37:50;;;;;;;6.47;1.85;;;;;;;8.82;77.70;98808.47;4976658;28;20340;-66
2022/04/10 09:40:30;;;;;;;7.22;2.15;;;;;;;8.75;74.66;98822.75;4988922;28;20475;-65
2022/04/10 09:43:12;;;;;;;8.07;2.40;;;;;;;8.37;75.38;98831.09;4985350;28;20568;-65
2022/04/10 09:45:46;;;;;;;7.88;1.90;;;;;;;8.17;76.78;98840.31;4985525;28;20042;-65
2022/04/10 09:48:29;;;;;;;5.72;2.13;;;;;;;7.90;76.75;98850.19;4990623;28;20154;-65
2022/04/10 09:51:00;;;;;;;6.35;2.25;;;;;;;7.91;77.30;98851.88;4973513;28;20445;-65
2022/04/10 09:53:29;;;;;;;8.45;2.40;;;;;;;7.85;77.06;98835.50;4970532;28;20042;-68
2022/04/10 09:56:04;;;;;;;12.55;2.10;;;;;;;7.96;76.55;98830.72;4941737;28;20102;-68
2022/04/10 09:58:32;;;;;;;7.20;2.30;;;;;;;8.21;75.07;98847.06;4962038;28;20050;-65
2022/04/10 10:00:59;;;;;;;7.50;2.33;;;;;;;8.35;76.11;98857.28;4990327;28;20047;-65
2022/04/10 10:03:28;;;;;;;10.10;2.58;;;;;;;8.45;74.35;98858.09;4939790;28;20088;-65
2022/04/10 10:05:55;;;;;;;7.88;2.53;;;;;;;8.52;71.98;98860.13;4971027;28;20070;-64
2022/04/10 10:08:22;;;;;;;7.30;2.28;;;;;;;8.64;70.40;98869.66;4971877;28;20487;-67
2022/04/10 10:10:49;;;;;;;7.97;2.53;;;;;;;8.52;70.18;98870.91;4972300;28;20057;-73
2022/04/10 10:13:15;;;;;;;6.70;2.13;;;;;;;8.58;69.22;98870.28;4956892;28;20501;-71
2022/04/10 10:15:42;;;;;;;7.03;2.30;;;;;;;8.93;69.74;98880.97;4982693;28;20077;-70
2022/04/10 10:18:10;;;;;;;9.02;3.03;;;;;;;9.09;68.22;98876.66;4958043;28;20042;-65
2022/04/10 10:20:36;;;;;;;11.18;2.58;;;;;;;8.93;67.96;98883.66;4974257;28;20402;-67
2022/04/10 10:23:07;;;;;;;7.30;2.88;;;;;;;9.00;69.46;98874.94;4941870;28;20083;-66
2022/04/10 10:25:58;;;;;;;7.05;2.72;;;;;;;9.34;67.75;98883.84;4959436;28;20043;-68
2022/04/10 10:29:12;;;;;;;12.07;3.05;;;;;;;9.06;68.13;98893.16;4942741;28;20047;-67
2022/04/10 10:31:52;;;;;;;7.28;2.85;;;;;;;9.02;69.17;98872.91;4943437;28;20050;-66
2022/04/10 10:34:21;;;;;;;9.68;2.95;;;;;;;9.24;66.80;98904.69;4980194;28;20038;-68
2022/04/10 10:36:47;;;;;;;8.75;2.92;;;;;;;8.93;67.25;98913.31;4976963;28;20163;-67
2022/04/10 10:39:13;;;;;;;7.32;2.95;;;;;;;8.91;68.03;98915.28;4990010;28;20077;-68
2022/04/10 10:41:40;;;;;;;8.60;3.00;;;;;;;9.03;67.31;98923.97;4963958;28;20053;-69
2022/04/10 10:44:35;;;;;;;8.98;3.05;;;;;;;9.04;65.81;98914.03;4927749;28;20074;-66
2022/04/10 10:47:04;;;;;;;7.97;3.10;;;;;;;9.01;68.36;98935.94;4974298;28;20140;-66
2022/04/10 10:49:32;;;;;;;9.57;3.22;;;;;;;8.68;67.87;98941.94;4976779;28;20052;-68
2022/04/10 10:51:58;;;;;;;15.40;3.40;;;;;;;8.79;67.96;98935.44;4957814;28;20560;-68
2022/04/10 10:54:27;;;;;;;8.05;3.28;;;;;;;8.83;67.06;98939.50;4948685;28;20110;-70
2022/04/10 10:56:54;;;;;;;7.47;3.28;;;;;;;8.80;68.16;98938.97;4960616;28;20144;-70
2022/04/10 10:59:32;;;;;;;8.68;3.15;;;;;;;8.77;67.13;98950.91;4989883;28;20451;-66
2022/04/10 11:02:04;;;;;;;9.70;3.28;;;;;;;8.76;68.22;98949.22;5008112;28;20046;-69
2022/04/10 11:04:47;;;;;;;8.05;3.13;;;;;;;8.86;68.21;98951.84;4992008;28;20042;-69
2022/04/10 11:07:19;;;;;;;8.55;3.55;;;;;;;8.93;68.46;98955.59;4969624;28;20059;-69
2022/04/10 11:10:03;;;;;;;9.77;3.70;;;;;;;9.06;66.60;98949.75;4974581;28;20050;-69
2022/04/10 11:12:34;;;;;;;8.07;3.72;;;;;;;8.94;67.52;98951.88;5005939;28;20056;-69
2022/04/10 11:15:17;;;;;;;7.32;3.42;;;;;;;8.92;67.34;98952.06;4958095;28;20042;-69
2022/04/10 11:17:43;;;;;;;9.43;3.22;;;;;;;8.98;66.52;98952.41;4993238;28;20046;-70
2022/04/10 11:20:09;;;;;;;8.38;3.50;;;;;;;8.96;68.06;98954.41;4959068;28;20069;-69
2022/04/10 11:22:46;;;;;;;9.73;3.75;;;;;;;9.05;67.27;98959.72;4966469;28;20045;-69
2022/04/10 11:25:12;;;;;;;11.02;3.80;;;;;;;9.24;66.19;98945.16;4974302;28;20459;-69
2022/04/10 11:27:48;;;;;;;8.00;3.35;;;;;;;9.08;65.53;98942.38;4966192;28;20088;-69
2022/04/10 11:30:24;;;;;;;9.02;3.90;;;;;;;9.19;65.58;98960.97;4966182;28;20093;-69
2022/04/10 11:33:00;;;;;;;9.27;3.88;;;;;;;9.04;66.28;98962.56;4990511;28;20042;-69
2022/04/10 11:35:37;;;;;;;8.48;3.38;;;;;;;8.98;66.90;98963.19;4938196;28;20039;-69
2022/04/10 11:38:06;;;;;;;10.88;4.03;;;;;;;8.96;67.24;98957.97;4990117;28;20050;-69
2022/04/10 11:40:34;;;;;;;9.65;3.60;;;;;;;8.78;66.45;98957.16;5024398;28;20595;-69
2022/04/10 11:43:02;;;;;;;8.90;4.03;;;;;;;8.90;68.39;98954.03;4958453;28;20065;-69
2022/04/10 11:45:30;;;;;;;10.48;3.95;;;;;;;9.05;66.44;98958.88;4990378;28;20046;-69
2022/04/10 11:47:57;;;;;;;8.43;3.78;;;;;;;8.88;66.75;98937.16;4958635;28;20054;-69
2022/04/10 11:50:27;;;;;;;11.88;4.47;;;;;;;9.03;64.96;98966.25;4961537;28;20072;-69
2022/04/10 11:53:07;;;;;;;11.57;4.10;;;;;;;9.12;65.45;98954.53;5008673;28;20122;-69
2022/04/10 11:55:40;;;;;;;12.88;5.88;;;;;;;9.05;64.32;98964.25;4991488;28;20147;-69
2022/04/10 11:58:15;;;;;;;9.25;4.90;;;;;;;8.99;66.46;98970.28;5007089;28;20058;-69
2022/04/10 12:00:58;;;;;;;11.73;4.15;;;;;;;8.81;64.70;98963.09;4958592;28;20050;-70
2022/04/10 12:03:29;;;;;;;;;;;;;;;8.80;65.22;98984.78;4974794;28;20042;-69